Round Lake Heights, Illinois
Current Conditions -  °F | °C
As of 12:55 PM on Tuesday 27 Jan 2015 (Local Time) from KUGN Reporting Station
Scattered Clouds Scattered Clouds  
Wind Chill: 20°   Ceiling: Unl
Heat Index: 29°   Visibility: 10mi
Dew Point: 17°   Wind: 9mph
Humidity: 61%   Direction: 40°NE
Pressure: 30.17"   Gusts: NA
Location:  42.3442°N, 88.1158°W
Report Text: KUGN 271855Z 04008KT 10SM SCT028 M02/M08 A3017 RMK AO2 SLP232 T10171083
Loading
Personal Weather Stations






























Interactive Weather Map New forecast layout! Learn more

10-Day Weather Forecast

Advertisements
Track Severe Weather on mobile